Time;durP1;ratioP1;P1;durP2;ratioP2;P2;SDS_P1;SDS_P2;PMS_P1;PMS_P2;Temp;Humidity;BMP_temperature;BMP_pressure;BME280_temperature;BME280_humidity;BME280_pressure;Samples;Min_cycle;Max_cycle;Signal;HPM_P1;HPM_P2
2022/02/21 00:01:22;;;;;;;0.98;0.52;;;8.90;99.90;;;;;;5065447;28;20033;-71
2022/02/21 00:03:49;;;;;;;1.67;0.85;;;8.80;99.90;;;;;;5057000;28;20131;-71
2022/02/21 00:06:15;;;;;;;3.00;0.50;;;8.80;99.90;;;;;;5069566;28;20047;-71
2022/02/21 00:08:47;;;;;;;1.33;0.40;;;8.80;99.90;;;;;;5085276;28;20044;-71
2022/02/21 00:11:19;;;;;;;2.88;0.40;;;8.80;99.90;;;;;;5069248;28;20054;-71
2022/02/21 00:13:51;;;;;;;3.47;0.80;;;8.80;99.90;;;;;;5068589;28;20413;-70
2022/02/21 00:16:18;;;;;;;2.40;0.50;;;8.80;99.90;;;;;;5069007;28;20049;-71
2022/02/21 00:18:49;;;;;;;0.68;0.40;;;8.80;99.90;;;;;;5070407;28;20052;-70
2022/02/21 00:21:16;;;;;;;1.75;0.30;;;8.80;99.90;;;;;;5069026;28;20040;-71
2022/02/21 00:23:48;;;;;;;0.90;0.50;;;8.70;99.90;;;;;;5068252;28;20051;-71
2022/02/21 00:26:20;;;;;;;1.48;0.45;;;8.70;99.90;;;;;;5053140;28;20036;-71
2022/02/21 00:28:53;;;;;;;1.77;0.40;;;8.60;99.90;;;;;;5069212;28;20036;-71
2022/02/21 00:31:28;;;;;;;1.10;0.47;;;8.60;99.90;;;;;;5070602;28;20411;-71
2022/02/21 00:33:55;;;;;;;1.95;0.40;;;8.60;99.90;;;;;;5068370;28;20131;-71
2022/02/21 00:36:27;;;;;;;1.45;0.60;;;8.60;99.90;;;;;;5070101;28;20132;-70
2022/02/21 00:38:58;;;;;;;1.27;0.43;;;8.60;99.90;;;;;;5052693;28;20126;-71
2022/02/21 00:41:30;;;;;;;2.45;0.70;;;8.60;99.90;;;;;;5069160;28;20045;-71
2022/02/21 00:44:02;;;;;;;1.15;0.50;;;8.50;99.90;;;;;;5068380;28;20039;-71
2022/02/21 00:46:34;;;;;;;1.25;0.40;;;8.60;99.90;;;;;;5070242;28;20084;-71
2022/02/21 00:49:01;;;;;;;2.15;0.60;;;8.60;99.90;;;;;;5052497;28;20465;-71
2022/02/21 00:51:28;;;;;;;0.80;0.60;;;8.60;99.90;;;;;;5070123;28;20491;-71
2022/02/21 00:54:00;;;;;;;2.22;0.50;;;8.60;99.90;;;;;;5069454;28;20040;-71
2022/02/21 00:56:32;;;;;;;1.77;0.70;;;8.70;99.90;;;;;;5070185;28;20064;-70
2022/02/21 00:59:04;;;;;;;1.05;0.60;;;8.70;99.90;;;;;;5068748;28;20406;-71
2022/02/21 01:01:31;;;;;;;2.15;0.60;;;8.70;99.90;;;;;;5070205;28;20044;-70
2022/02/21 01:04:03;;;;;;;1.45;0.60;;;8.70;99.90;;;;;;5052444;28;20041;-70
2022/02/21 01:06:34;;;;;;;1.13;0.50;;;8.80;99.90;;;;;;5052805;28;20041;-70
2022/02/21 01:09:06;;;;;;;3.17;1.15;;;8.80;99.90;;;;;;5070162;28;20058;-71
2022/02/21 01:11:38;;;;;;;2.15;0.60;;;8.70;99.90;;;;;;5052761;28;20059;-71
2022/02/21 01:14:05;;;;;;;2.00;0.47;;;8.70;99.90;;;;;;5068220;28;20120;-71
2022/02/21 01:16:32;;;;;;;2.40;0.90;;;8.70;99.90;;;;;;5069995;28;20119;-71
2022/02/21 01:19:08;;;;;;;0.93;0.53;;;8.70;99.90;;;;;;5068709;28;20519;-70
2022/02/21 01:21:39;;;;;;;1.50;0.70;;;8.70;99.90;;;;;;5069930;28;20047;-70
2022/02/21 01:24:07;;;;;;;1.08;0.47;;;8.70;99.90;;;;;;5069394;28;20037;-70
2022/02/21 01:26:38;;;;;;;1.55;0.77;;;8.70;99.90;;;;;;5068665;28;20043;-70
2022/02/21 01:29:10;;;;;;;1.33;0.90;;;8.70;99.90;;;;;;5068723;28;20051;-71
2022/02/21 01:31:42;;;;;;;3.65;0.70;;;8.70;99.90;;;;;;5069856;28;20040;-71
2022/02/21 01:34:14;;;;;;;1.70;0.70;;;8.70;99.90;;;;;;5069433;28;20035;-71
2022/02/21 01:36:47;;;;;;;2.10;0.73;;;8.70;99.90;;;;;;5069743;28;20037;-71
2022/02/21 01:39:22;;;;;;;1.30;0.70;;;8.80;99.90;;;;;;5084348;28;20045;-70
2022/02/21 01:41:50;;;;;;;1.60;0.55;;;8.70;99.90;;;;;;5052237;28;20060;-70
2022/02/21 01:44:37;;;;;;;3.17;0.90;;;8.70;99.90;;;;;;5069509;28;20045;-71
2022/02/21 01:47:11;;;;;;;2.80;0.60;;;8.70;99.90;;;;;;5068511;28;20058;-71
2022/02/21 01:49:37;;;;;;;1.55;0.60;;;8.70;99.90;;;;;;5069839;28;20765;-70
2022/02/21 01:52:11;;;;;;;2.47;0.60;;;8.80;99.90;;;;;;5072146;28;20037;-71
2022/02/21 01:54:43;;;;;;;0.82;0.40;;;8.80;99.90;;;;;;5072785;28;20048;-71
2022/02/21 01:57:13;;;;;;;1.05;0.52;;;8.80;99.90;;;;;;5072950;28;20127;-71
2022/02/21 01:59:45;;;;;;;4.65;0.60;;;8.80;99.90;;;;;;5071479;28;20047;-71
2022/02/21 02:02:17;;;;;;;4.13;0.77;;;8.80;99.90;;;;;;5073164;28;20045;-71
2022/02/21 02:04:49;;;;;;;1.48;0.68;;;8.80;99.90;;;;;;5073921;28;20037;-71
2022/02/21 02:07:16;;;;;;;4.15;0.52;;;8.80;99.90;;;;;;5071621;28;20041;-71
2022/02/21 02:09:48;;;;;;;1.45;0.75;;;8.80;99.90;;;;;;5087716;28;20040;-70
2022/02/21 02:12:20;;;;;;;2.80;1.25;;;8.90;99.90;;;;;;5072424;28;20059;-70
2022/02/21 02:14:51;;;;;;;1.50;0.50;;;8.90;99.90;;;;;;5072625;28;20071;-71
2022/02/21 02:17:24;;;;;;;2.38;0.57;;;8.80;99.90;;;;;;5071230;28;20036;-71
2022/02/21 02:19:54;;;;;;;1.02;0.60;;;8.80;99.90;;;;;;5072344;28;20037;-71
2022/02/21 02:22:26;;;;;;;2.97;0.47;;;8.80;99.90;;;;;;5070830;28;20037;-71
2022/02/21 02:24:54;;;;;;;1.77;0.60;;;8.90;99.90;;;;;;5072921;28;20127;-71
2022/02/21 02:27:26;;;;;;;1.35;0.52;;;8.90;99.90;;;;;;5072688;28;20048;-71
2022/02/21 02:29:59;;;;;;;0.68;0.40;;;8.90;99.90;;;;;;5071625;28;20040;-72
2022/02/21 02:32:26;;;;;;;4.40;0.80;;;8.90;99.90;;;;;;5070854;28;20052;-71
2022/02/21 02:34:59;;;;;;;2.83;0.60;;;8.90;99.90;;;;;;5072124;28;20059;-71
2022/02/21 02:37:31;;;;;;;1.20;0.50;;;8.90;99.90;;;;;;5071202;28;20078;-70
2022/02/21 02:40:04;;;;;;;0.82;0.50;;;9.00;99.90;;;;;;5071300;28;20051;-70
2022/02/21 02:42:33;;;;;;;2.28;1.08;;;8.90;99.90;;;;;;5072713;28;20036;-71
2022/02/21 02:45:05;;;;;;;1.15;0.90;;;8.90;99.90;;;;;;5071916;28;20052;-71
2022/02/21 02:47:32;;;;;;;0.80;0.40;;;8.90;99.90;;;;;;5072881;28;20115;-70
2022/02/21 02:49:58;;;;;;;1.08;0.40;;;8.90;99.90;;;;;;5071396;28;20131;-71
2022/02/21 02:52:25;;;;;;;0.90;0.35;;;8.90;99.90;;;;;;5071092;28;20577;-71
2022/02/21 02:54:55;;;;;;;1.55;0.45;;;8.80;99.90;;;;;;5071502;28;20044;-71
2022/02/21 02:57:27;;;;;;;1.75;0.60;;;8.80;99.90;;;;;;5071565;28;20483;-71
2022/02/21 02:59:59;;;;;;;2.53;0.50;;;8.90;99.90;;;;;;5071317;28;20045;-71
2022/02/21 03:02:31;;;;;;;2.15;0.45;;;8.80;99.90;;;;;;5054847;28;20036;-71
2022/02/21 03:05:03;;;;;;;0.93;0.57;;;8.80;99.90;;;;;;5072707;28;20068;-71
2022/02/21 03:07:34;;;;;;;1.27;0.60;;;8.80;99.90;;;;;;5072513;28;20044;-71
2022/02/21 03:10:04;;;;;;;0.68;0.35;;;8.80;99.90;;;;;;5071173;28;20115;-71
2022/02/21 03:12:31;;;;;;;1.13;0.50;;;8.80;99.90;;;;;;5070499;28;20049;-71
2022/02/21 03:15:04;;;;;;;4.10;0.55;;;8.80;99.90;;;;;;5072292;28;20398;-71
2022/02/21 03:17:38;;;;;;;2.33;0.88;;;8.80;99.90;;;;;;5071023;28;20044;-71
2022/02/21 03:20:10;;;;;;;2.80;1.17;;;8.80;99.90;;;;;;5071059;28;20043;-70
2022/02/21 03:22:44;;;;;;;2.30;0.60;;;8.80;99.90;;;;;;5071784;28;20058;-70
2022/02/21 03:25:16;;;;;;;1.40;0.52;;;8.80;99.90;;;;;;5087796;28;20504;-71
2022/02/21 03:27:48;;;;;;;0.90;0.60;;;8.80;99.90;;;;;;5072362;28;20040;-70
2022/02/21 03:30:15;;;;;;;3.85;0.50;;;8.80;99.90;;;;;;5070892;28;20496;-70
2022/02/21 03:32:46;;;;;;;5.03;0.85;;;8.90;99.90;;;;;;5071553;28;20048;-70
2022/02/21 03:35:18;;;;;;;1.65;0.40;;;8.90;99.90;;;;;;5070543;28;20044;-70
2022/02/21 03:37:45;;;;;;;1.00;0.50;;;8.90;99.90;;;;;;5070451;28;20093;-71
2022/02/21 03:40:14;;;;;;;1.38;0.57;;;8.80;99.90;;;;;;5071742;28;20037;-71
2022/02/21 03:42:46;;;;;;;5.00;1.17;;;8.80;99.90;;;;;;5086232;28;20120;-72
2022/02/21 03:45:22;;;;;;;2.25;0.57;;;8.80;99.90;;;;;;5070451;28;20052;-70
2022/02/21 03:47:53;;;;;;;0.60;0.47;;;8.80;99.90;;;;;;5070533;28;20059;-71
2022/02/21 03:50:26;;;;;;;1.83;0.55;;;8.80;99.90;;;;;;5071723;28;20052;-71
2022/02/21 03:52:57;;;;;;;1.73;0.40;;;8.70;99.90;;;;;;5071005;28;20049;-71
2022/02/21 03:55:29;;;;;;;0.50;0.30;;;8.80;99.90;;;;;;5071450;28;20116;-71
2022/02/21 03:58:01;;;;;;;1.38;0.50;;;8.80;99.90;;;;;;5071656;28;20028;-71
2022/02/21 04:00:28;;;;;;;0.90;0.50;;;8.80;99.90;;;;;;5070163;28;20049;-71
2022/02/21 04:02:54;;;;;;;1.83;0.90;;;8.80;99.90;;;;;;5053006;28;20139;-71
2022/02/21 04:05:26;;;;;;;1.52;0.38;;;8.70;99.90;;;;;;5069761;28;20049;-70
2022/02/21 04:07:58;;;;;;;0.52;0.40;;;8.70;99.90;;;;;;5070054;28;20059;-71
2022/02/21 04:10:30;;;;;;;1.88;0.50;;;8.70;99.90;;;;;;5071359;28;20094;-70
2022/02/21 04:12:56;;;;;;;0.45;0.35;;;8.70;99.90;;;;;;5059033;28;20139;-71
2022/02/21 04:15:29;;;;;;;1.35;0.50;;;8.70;99.90;;;;;;5058236;28;20129;-71
2022/02/21 04:18:01;;;;;;;3.75;0.68;;;8.60;99.90;;;;;;5048249;28;20033;-71
2022/02/21 04:20:30;;;;;;;0.30;0.28;;;8.60;99.90;;;;;;5051412;28;20131;-71
2022/02/21 04:23:02;;;;;;;;;;;8.60;99.90;;;;;;5049767;28;20127;-71
2022/02/21 04:25:33;;;;;;;0.40;0.35;;;8.60;99.90;;;;;;5046810;28;19928;-71
2022/02/21 04:28:05;;;;;;;0.50;0.30;;;8.60;99.90;;;;;;5046305;28;20481;-71
2022/02/21 04:30:32;;;;;;;0.70;0.40;;;8.60;99.90;;;;;;5046329;28;20124;-72
2022/02/21 04:32:59;;;;;;;1.33;0.40;;;8.60;99.90;;;;;;5049196;28;20380;-70
2022/02/21 04:35:30;;;;;;;0.50;0.32;;;8.60;99.90;;;;;;5050881;28;20047;-71
2022/02/21 04:37:57;;;;;;;0.90;0.45;;;8.50;99.90;;;;;;5045881;28;20092;-71
2022/02/21 04:40:27;;;;;;;0.85;0.40;;;8.40;99.90;;;;;;5050037;28;20072;-71
2022/02/21 04:42:58;;;;;;;1.30;0.40;;;8.40;99.90;;;;;;5050080;28;20128;-71
2022/02/21 04:45:25;;;;;;;0.77;0.40;;;8.30;99.90;;;;;;5050053;28;20124;-71
2022/02/21 04:47:57;;;;;;;2.00;0.50;;;8.30;99.90;;;;;;5049838;28;20060;-71
2022/02/21 04:50:24;;;;;;;1.52;0.40;;;8.30;99.90;;;;;;5049025;28;20123;-71
2022/02/21 04:52:56;;;;;;;0.52;0.30;;;8.20;99.90;;;;;;5048337;28;20041;-70
2022/02/21 04:55:22;;;;;;;0.98;0.30;;;8.30;99.90;;;;;;5048636;28;20037;-70
2022/02/21 04:57:54;;;;;;;0.68;0.40;;;8.30;99.90;;;;;;5050399;28;20041;-70
2022/02/21 05:00:26;;;;;;;1.80;0.30;;;8.20;99.90;;;;;;5048954;28;20120;-70
2022/02/21 05:02:58;;;;;;;1.02;0.43;;;8.30;99.90;;;;;;5048542;28;20124;-71
2022/02/21 05:05:31;;;;;;;0.63;0.40;;;8.20;99.90;;;;;;5050271;28;20124;-70
2022/02/21 05:07:58;;;;;;;1.15;0.50;;;8.20;99.90;;;;;;5049004;28;20041;-69
2022/02/21 05:10:26;;;;;;;0.77;0.40;;;8.30;99.90;;;;;;5050058;28;20116;-71
2022/02/21 05:12:59;;;;;;;3.35;0.73;;;8.20;99.90;;;;;;5048738;28;20474;-71
2022/02/21 05:15:32;;;;;;;1.23;0.75;;;8.10;99.90;;;;;;5049509;28;20047;-72
2022/02/21 05:18:04;;;;;;;1.08;0.45;;;8.10;99.90;;;;;;5052121;28;20079;-71
2022/02/21 05:20:36;;;;;;;4.72;0.52;;;8.00;99.90;;;;;;5048205;28;20076;-72
2022/02/21 05:23:03;;;;;;;0.63;0.40;;;6.80;99.90;;;;;;5047965;28;20084;-71
2022/02/21 05:25:35;;;;;;;0.43;0.30;;;5.00;99.90;;;;;;5049942;28;20140;-72
2022/02/21 05:28:01;;;;;;;0.20;0.20;;;3.60;99.90;;;;;;5052357;28;20057;-72
2022/02/21 05:30:28;;;;;;;0.50;0.30;;;2.80;99.90;;;;;;5053405;28;20305;-73
2022/02/21 05:33:00;;;;;;;1.88;0.90;;;2.30;99.90;;;;;;5051973;28;20061;-74
2022/02/21 05:35:27;;;;;;;0.80;0.35;;;2.00;99.90;;;;;;5054069;28;20115;-72
2022/02/21 05:37:58;;;;;;;0.73;0.45;;;2.00;99.90;;;;;;5054122;28;20460;-74
2022/02/21 05:40:25;;;;;;;0.73;0.50;;;1.90;99.90;;;;;;5052800;28;20048;-73
2022/02/21 05:42:52;;;;;;;0.50;0.40;;;1.90;99.90;;;;;;5035458;28;20466;-73
2022/02/21 05:45:25;;;;;;;0.63;0.40;;;1.90;99.90;;;;;;5052577;28;20132;-73
2022/02/21 05:47:55;;;;;;;1.58;0.40;;;1.90;99.90;;;;;;5051540;28;20110;-72
2022/02/21 05:50:24;;;;;;;1.98;0.90;;;1.80;99.90;;;;;;5050917;28;20406;-73
2022/02/21 05:52:51;;;;;;;2.63;1.15;;;1.90;99.90;;;;;;5048621;28;20036;-73
2022/02/21 05:55:22;;;;;;;2.13;0.70;;;2.10;99.90;;;;;;5050596;28;20045;-73
2022/02/21 05:57:58;;;;;;;1.00;0.60;;;2.30;99.90;;;;;;5051524;28;20048;-72
2022/02/21 06:00:30;;;;;;;1.90;0.60;;;2.40;99.90;;;;;;5052915;28;20037;-72
2022/02/21 06:03:02;;;;;;;2.35;0.85;;;2.50;99.90;;;;;;5051929;28;20068;-73
2022/02/21 06:05:34;;;;;;;0.98;0.70;;;2.60;99.90;;;;;;5051369;28;20055;-72
2022/02/21 06:08:01;;;;;;;1.10;0.93;;;2.50;99.90;;;;;;5051294;28;20098;-72
2022/02/21 06:10:33;;;;;;;1.58;0.80;;;2.50;99.90;;;;;;5052655;28;20056;-72
2022/02/21 06:13:06;;;;;;;2.85;0.73;;;2.50;99.90;;;;;;5051735;28;20428;-72
2022/02/21 06:15:35;;;;;;;1.58;0.80;;;2.50;99.90;;;;;;5051579;28;20064;-72
2022/02/21 06:18:07;;;;;;;1.83;0.70;;;2.40;99.90;;;;;;5053019;28;20083;-72
2022/02/21 06:20:39;;;;;;;1.40;0.65;;;2.30;99.90;;;;;;5050843;28;20044;-72
2022/02/21 06:23:11;;;;;;;1.33;0.45;;;2.30;99.90;;;;;;5034683;28;20504;-72
2022/02/21 06:25:43;;;;;;;2.80;0.65;;;2.30;99.90;;;;;;5050909;28;20055;-72
2022/02/21 06:28:17;;;;;;;;;;;2.20;99.90;;;;;;5058143;28;20055;-72
2022/02/21 06:30:49;;;;;;;1.00;0.52;;;2.20;99.90;;;;;;5051189;28;19931;-72
2022/02/21 06:33:16;;;;;;;1.48;0.47;;;2.30;99.90;;;;;;5067337;28;20102;-72
2022/02/21 06:35:48;;;;;;;2.45;0.60;;;2.30;99.90;;;;;;5068000;28;20041;-72
2022/02/21 06:38:20;;;;;;;0.47;0.38;;;2.30;99.90;;;;;;5060123;28;20098;-72
2022/02/21 06:40:51;;;;;;;0.75;0.32;;;2.40;99.90;;;;;;5059921;28;20049;-72
2022/02/21 06:43:23;;;;;;;1.48;0.50;;;2.30;99.90;;;;;;5055499;28;20519;-72
2022/02/21 06:45:55;;;;;;;1.33;0.68;;;2.30;99.90;;;;;;5072242;28;20123;-71
2022/02/21 06:48:27;;;;;;;0.63;0.40;;;2.30;99.90;;;;;;5056758;28;20045;-71
2022/02/21 06:50:54;;;;;;;3.80;0.52;;;2.30;99.90;;;;;;5066332;28;20107;-71
2022/02/21 06:53:26;;;;;;;1.25;0.50;;;2.30;99.90;;;;;;5052255;28;20060;-70
2022/02/21 06:55:58;;;;;;;2.53;0.70;;;2.30;99.90;;;;;;5051356;28;20067;-72
2022/02/21 06:58:29;;;;;;;2.75;0.63;;;2.30;99.90;;;;;;5072034;28;20131;-71
2022/02/21 07:01:01;;;;;;;2.20;0.70;;;2.30;99.90;;;;;;5057704;28;20037;-71
2022/02/21 07:03:28;;;;;;;1.40;0.90;;;2.30;99.90;;;;;;5041805;28;20124;-72
2022/02/21 07:05:55;;;;;;;3.33;0.90;;;2.30;99.90;;;;;;5034091;28;20098;-71
2022/02/21 07:08:27;;;;;;;1.63;0.80;;;2.30;99.90;;;;;;5042656;28;20051;-71
2022/02/21 07:10:58;;;;;;;3.97;1.00;;;2.30;99.90;;;;;;5049077;28;20041;-70
2022/02/21 07:13:25;;;;;;;1.42;0.70;;;2.40;99.90;;;;;;5042804;28;20132;-71
2022/02/21 07:15:59;;;;;;;2.15;0.65;;;2.30;99.90;;;;;;5048435;28;20045;-71
2022/02/21 07:18:31;;;;;;;2.45;0.88;;;2.40;99.90;;;;;;5048063;28;20123;-71
2022/02/21 07:21:04;;;;;;;5.03;1.05;;;2.30;99.90;;;;;;5045756;28;20043;-71
2022/02/21 07:23:35;;;;;;;3.25;0.93;;;2.20;99.90;;;;;;5045812;28;20045;-71
2022/02/21 07:26:08;;;;;;;2.53;0.80;;;2.20;99.90;;;;;;5031880;28;20510;-71
2022/02/21 07:28:42;;;;;;;3.25;0.68;;;2.20;99.90;;;;;;5060943;28;20529;-71
2022/02/21 07:31:13;;;;;;;5.50;0.90;;;2.20;99.90;;;;;;5046462;28;20036;-71
2022/02/21 07:33:45;;;;;;;6.72;1.08;;;2.20;99.90;;;;;;5049154;28;20045;-71
2022/02/21 07:36:18;;;;;;;2.50;0.75;;;2.20;99.90;;;;;;5048548;28;20037;-72
2022/02/21 07:38:51;;;;;;;3.65;0.75;;;2.30;99.90;;;;;;5047053;28;20159;-72
2022/02/21 07:41:23;;;;;;;3.60;0.60;;;2.30;99.90;;;;;;5067131;28;20071;-71
2022/02/21 07:43:49;;;;;;;2.78;1.73;;;2.40;99.90;;;;;;5052884;28;20202;-71
2022/02/21 07:46:16;;;;;;;3.55;0.77;;;2.40;99.90;;;;;;5058133;28;20036;-70
2022/02/21 07:48:48;;;;;;;4.28;0.75;;;2.50;99.90;;;;;;5058916;28;20064;-70
2022/02/21 07:51:20;;;;;;;1.90;1.27;;;2.50;99.90;;;;;;5065063;28;20143;-70
2022/02/21 07:53:51;;;;;;;2.03;0.55;;;2.50;99.90;;;;;;5052366;28;20110;-70
2022/02/21 07:56:23;;;;;;;2.72;1.02;;;2.60;99.90;;;;;;5044719;28;20499;-70
2022/02/21 07:58:55;;;;;;;1.40;0.80;;;2.60;99.90;;;;;;5058534;28;20037;-70
2022/02/21 08:01:29;;;;;;;3.70;1.00;;;2.70;99.90;;;;;;5066107;28;20051;-71
2022/02/21 08:04:01;;;;;;;5.68;1.27;;;2.80;99.90;;;;;;5038369;28;20483;-72
2022/02/21 08:06:28;;;;;;;3.38;1.17;;;2.80;99.90;;;;;;5063469;28;20451;-71
2022/02/21 08:09:00;;;;;;;4.32;1.40;;;2.90;99.90;;;;;;5040087;28;20163;-71
2022/02/21 08:11:33;;;;;;;4.07;2.33;;;2.90;99.90;;;;;;5044323;28;20521;-72
2022/02/21 08:14:00;;;;;;;3.03;1.10;;;3.00;99.90;;;;;;5055412;28;20124;-71
2022/02/21 08:16:27;;;;;;;4.45;0.90;;;3.00;99.90;;;;;;5040902;28;20136;-71
2022/02/21 08:18:59;;;;;;;5.30;1.05;;;3.00;99.90;;;;;;5046668;28;20136;-71
2022/02/21 08:21:32;;;;;;;5.00;1.10;;;3.00;99.90;;;;;;5046637;28;20045;-71
2022/02/21 08:24:05;;;;;;;4.45;0.88;;;2.90;99.90;;;;;;5045910;28;20200;-71
2022/02/21 08:26:36;;;;;;;6.57;1.37;;;3.00;99.90;;;;;;5081211;28;20158;-71
2022/02/21 08:29:08;;;;;;;5.22;1.45;;;3.10;99.90;;;;;;5050545;28;20294;-71
2022/02/21 08:31:35;;;;;;;4.53;0.98;;;3.20;99.90;;;;;;5045544;28;20048;-70
2022/02/21 08:34:08;;;;;;;7.00;1.50;;;3.20;99.90;;;;;;5043662;28;20526;-71
2022/02/21 08:36:40;;;;;;;9.02;0.98;;;3.30;99.90;;;;;;5048757;28;20029;-72
2022/02/21 08:39:12;;;;;;;4.75;0.70;;;3.30;99.90;;;;;;5047840;28;20051;-71
2022/02/21 08:41:44;;;;;;;3.72;0.90;;;3.30;99.90;;;;;;5044023;28;20061;-72
2022/02/21 08:44:11;;;;;;;4.40;1.30;;;3.20;99.90;;;;;;5056187;28;20029;-71
2022/02/21 08:46:38;;;;;;;4.20;1.20;;;3.20;99.90;;;;;;5049771;28;20459;-72
2022/02/21 08:49:10;;;;;;;5.88;0.90;;;3.20;99.90;;;;;;5039563;28;20041;-71
2022/02/21 08:51:42;;;;;;;5.07;1.17;;;3.20;99.90;;;;;;5050160;28;20083;-71
2022/02/21 08:54:14;;;;;;;5.40;1.50;;;3.20;99.90;;;;;;5052979;28;20055;-71
2022/02/21 08:56:42;;;;;;;4.30;1.00;;;3.30;99.90;;;;;;5053059;28;20049;-71
2022/02/21 08:59:16;;;;;;;5.83;1.20;;;3.40;99.90;;;;;;5045244;28;20124;-71
2022/02/21 09:01:48;;;;;;;8.05;1.42;;;3.40;99.90;;;;;;5051689;28;20095;-71
2022/02/21 09:04:19;;;;;;;4.97;1.60;;;3.40;99.90;;;;;;5040359;28;20146;-71
2022/02/21 09:06:48;;;;;;;4.38;0.98;;;3.30;99.90;;;;;;5056430;28;20045;-70
2022/02/21 09:09:15;;;;;;;5.88;1.20;;;3.30;99.90;;;;;;5055138;28;20122;-70
2022/02/21 09:11:49;;;;;;;3.58;1.45;;;3.40;99.90;;;;;;5058243;28;20041;-71
2022/02/21 09:14:21;;;;;;;3.55;0.85;;;3.40;99.90;;;;;;5056092;28;20116;-71
2022/02/21 09:16:48;;;;;;;5.63;1.25;;;3.40;99.90;;;;;;5045338;28;20120;-70
2022/02/21 09:19:17;;;;;;;3.78;1.02;;;3.40;99.90;;;;;;5052075;28;20603;-71
2022/02/21 09:21:49;;;;;;;6.88;1.25;;;3.40;99.90;;;;;;5054671;28;20033;-72
2022/02/21 09:24:21;;;;;;;2.22;1.02;;;3.40;99.90;;;;;;5053244;28;20043;-71
2022/02/21 09:26:48;;;;;;;4.63;1.15;;;3.50;99.90;;;;;;5065735;28;20479;-71
2022/02/21 09:29:15;;;;;;;5.47;0.82;;;3.50;99.90;;;;;;5067861;28;20418;-70
2022/02/21 09:31:47;;;;;;;2.17;1.00;;;3.50;99.90;;;;;;5045521;28;20132;-70
2022/02/21 09:34:19;;;;;;;2.67;0.82;;;3.50;99.90;;;;;;5057702;28;20079;-71
2022/02/21 09:36:51;;;;;;;4.40;1.00;;;3.50;99.90;;;;;;5060575;28;20115;-71
2022/02/21 09:39:22;;;;;;;6.32;1.60;;;3.50;99.90;;;;;;5061808;28;20090;-71
2022/02/21 09:41:49;;;;;;;7.50;1.23;;;3.60;99.90;;;;;;5051813;28;20094;-70
2022/02/21 09:44:17;;;;;;;4.53;1.60;;;3.50;99.90;;;;;;5053627;28;20067;-70
2022/02/21 09:46:51;;;;;;;3.22;0.82;;;3.50;99.90;;;;;;5053229;28;20136;-70
2022/02/21 09:49:24;;;;;;;3.42;1.08;;;3.50;99.90;;;;;;5054496;28;20430;-71
2022/02/21 09:51:56;;;;;;;4.60;1.20;;;3.60;99.90;;;;;;5053201;28;20518;-70
2022/02/21 09:54:29;;;;;;;5.50;1.50;;;3.60;99.90;;;;;;5054257;28;20044;-71
2022/02/21 09:57:02;;;;;;;2.90;1.20;;;3.70;99.90;;;;;;5054336;28;20037;-71
2022/02/21 09:59:34;;;;;;;6.95;1.45;;;3.80;99.90;;;;;;5053064;28;20047;-71
2022/02/21 10:02:07;;;;;;;6.60;1.30;;;3.90;99.90;;;;;;5054078;28;20231;-70
2022/02/21 10:04:38;;;;;;;3.47;1.13;;;4.00;99.90;;;;;;5052555;28;20064;-71
2022/02/21 10:07:05;;;;;;;3.33;1.45;;;4.00;99.90;;;;;;5052934;28;20862;-70
2022/02/21 10:09:36;;;;;;;4.65;1.13;;;4.10;99.90;;;;;;5052823;28;20472;-71
2022/02/21 10:12:21;;;;;;;4.18;1.30;;;4.20;99.90;;;;;;5053392;28;20047;-71
2022/02/21 10:14:53;;;;;;;3.10;1.35;;;4.30;99.90;;;;;;5069382;28;20407;-71
2022/02/21 10:17:25;;;;;;;4.53;0.93;;;4.50;99.90;;;;;;5053872;28;20041;-71
2022/02/21 10:20:06;;;;;;;5.85;1.23;;;4.60;99.90;;;;;;5052662;28;20044;-70
2022/02/21 10:22:33;;;;;;;3.85;1.02;;;4.60;99.90;;;;;;5052192;28;20128;-70
2022/02/21 10:25:01;;;;;;;4.45;0.82;;;4.60;99.90;;;;;;5069031;28;20068;-71
2022/02/21 10:27:29;;;;;;;4.57;1.10;;;4.60;99.90;;;;;;5052441;28;20135;-70
2022/02/21 10:30:05;;;;;;;3.50;1.00;;;4.70;99.90;;;;;;5052446;28;20052;-71
2022/02/21 10:32:34;;;;;;;4.00;1.50;;;4.80;99.90;;;;;;5052018;28;20491;-70
2022/02/21 10:35:27;;;;;;;;;;;4.80;99.90;;;;;;5069000;28;20045;-72
2022/02/21 10:38:09;;;;;;;6.20;1.20;;;4.90;99.90;;;;;;5052206;28;19921;-71
2022/02/21 10:40:38;;;;;;;6.35;1.50;;;4.90;99.90;;;;;;5068979;28;20049;-71
2022/02/21 10:43:06;;;;;;;3.35;0.88;;;5.10;99.90;;;;;;5068434;28;20123;-70
2022/02/21 10:45:39;;;;;;;6.55;1.27;;;5.30;99.90;;;;;;5052548;28;20041;-71
2022/02/21 10:48:16;;;;;;;5.68;1.10;;;5.40;99.90;;;;;;5067771;28;20053;-71
2022/02/21 10:50:57;;;;;;;5.95;1.40;;;5.40;99.90;;;;;;5052296;28;20045;-70
2022/02/21 10:53:47;;;;;;;4.97;1.45;;;5.40;99.90;;;;;;5052707;28;20036;-71
2022/02/21 10:56:16;;;;;;;7.25;1.30;;;5.40;99.90;;;;;;5051115;28;20507;-71
2022/02/21 10:58:43;;;;;;;4.82;1.10;;;5.40;99.90;;;;;;5053434;28;20115;-71
2022/02/21 11:01:14;;;;;;;8.15;5.10;;;5.40;99.90;;;;;;5056016;28;20032;-71
2022/02/21 11:03:42;;;;;;;6.15;1.15;;;5.30;99.90;;;;;;5054256;28;20032;-71
2022/02/21 11:06:16;;;;;;;4.57;1.27;;;5.10;99.90;;;;;;5045403;28;20053;-71
2022/02/21 11:08:43;;;;;;;5.32;1.30;;;4.70;99.90;;;;;;5062266;28;20044;-71
2022/02/21 11:11:16;;;;;;;8.48;1.63;;;4.60;99.90;;;;;;5071556;28;20037;-70
2022/02/21 11:13:49;;;;;;;5.18;1.45;;;4.60;99.90;;;;;;5049875;28;20051;-71
2022/02/21 11:16:22;;;;;;;5.18;1.42;;;4.80;99.90;;;;;;5051573;28;20399;-70
2022/02/21 11:18:55;;;;;;;5.53;1.42;;;4.90;99.90;;;;;;5040071;28;20045;-71
2022/02/21 11:21:33;;;;;;;6.03;1.42;;;5.00;99.90;;;;;;5044463;28;20041;-71
2022/02/21 11:24:39;;;;;;;3.83;1.20;;;5.30;99.90;;;;;;5043857;28;20546;-71
2022/02/21 11:27:54;;;;;;;6.95;1.20;;;5.50;99.90;;;;;;5066515;28;20041;-70
2022/02/21 11:30:26;;;;;;;3.60;1.10;;;5.70;99.90;;;;;;5051113;28;20116;-71
2022/02/21 11:33:09;;;;;;;3.95;1.60;;;5.80;99.90;;;;;;5046335;28;20053;-71
2022/02/21 11:36:06;;;;;;;5.13;1.20;;;5.90;99.90;;;;;;5061282;28;20124;-71
2022/02/21 11:38:42;;;;;;;4.85;1.70;;;5.80;99.90;;;;;;5046210;28;20072;-71
2022/02/21 11:41:15;;;;;;;5.88;1.58;;;5.80;99.90;;;;;;5049433;28;20026;-70
2022/02/21 11:43:44;;;;;;;7.75;1.13;;;5.80;99.90;;;;;;5048510;28;20168;-71
2022/02/21 11:46:28;;;;;;;6.07;1.75;;;5.80;99.90;;;;;;5042521;28;20034;-71
2022/02/21 11:49:01;;;;;;;8.73;1.25;;;5.90;99.90;;;;;;5052092;28;20037;-70
2022/02/21 11:51:36;;;;;;;3.83;1.20;;;6.00;99.90;;;;;;5039244;28;20465;-71
2022/02/21 11:54:09;;;;;;;7.32;1.45;;;6.00;99.90;;;;;;5058072;28;20052;-71
2022/02/21 11:56:48;;;;;;;8.05;1.52;;;5.90;99.90;;;;;;5050227;28;20098;-72
2022/02/21 11:59:21;;;;;;;3.83;1.10;;;6.00;99.90;;;;;;5049726;28;20036;-70
2022/02/21 12:01:48;;;;;;;8.27;1.40;;;5.90;99.90;;;;;;5046398;28;20116;-71
2022/02/21 12:04:21;;;;;;;5.75;1.63;;;5.80;99.90;;;;;;5033259;28;20500;-70
2022/02/21 12:06:54;;;;;;;8.63;1.63;;;5.90;99.90;;;;;;5049853;28;20044;-71
2022/02/21 12:09:27;;;;;;;5.95;1.30;;;5.80;99.90;;;;;;5065851;28;20033;-71
2022/02/21 12:12:26;;;;;;;7.63;1.63;;;5.80;99.90;;;;;;5051194;28;20048;-71
2022/02/21 12:15:12;;;;;;;7.68;1.17;;;5.90;99.90;;;;;;5051248;28;20116;-70
2022/02/21 12:17:39;;;;;;;9.40;1.92;;;6.10;99.90;;;;;;5051063;28;20083;-70
2022/02/21 12:20:32;;;;;;;5.53;1.52;;;5.90;99.90;;;;;;5034112;28;20041;-70
2022/02/21 12:23:18;;;;;;;6.97;1.20;;;5.80;99.90;;;;;;5049583;28;20055;-71
2022/02/21 12:26:00;;;;;;;6.95;1.33;;;5.70;99.90;;;;;;5044880;28;20523;-71
2022/02/21 12:28:34;;;;;;;7.43;1.25;;;5.60;99.90;;;;;;5053717;28;20509;-70
2022/02/21 12:31:01;;;;;;;4.20;1.27;;;5.60;99.90;;;;;;5071192;28;20128;-70
2022/02/21 12:33:35;;;;;;;5.85;1.40;;;5.80;99.90;;;;;;5067246;28;20048;-70
2022/02/21 12:36:07;;;;;;;5.88;1.52;;;5.90;99.90;;;;;;5031882;28;20440;-71
2022/02/21 12:38:42;;;;;;;4.72;1.20;;;5.80;99.90;;;;;;5063263;28;20040;-70
2022/02/21 12:41:14;;;;;;;7.00;2.38;;;5.80;99.90;;;;;;5052385;28;20482;-71
2022/02/21 12:44:00;;;;;;;5.50;1.95;;;5.70;99.90;;;;;;5055025;28;20062;-72
2022/02/21 12:46:39;;;;;;;7.70;1.70;;;5.50;99.90;;;;;;5053991;28;20487;-70
2022/02/21 12:49:24;;;;;;;6.45;1.30;;;5.20;99.90;;;;;;5085476;28;20048;-70
2022/02/21 12:52:10;;;;;;;6.97;2.40;;;5.10;99.90;;;;;;5038810;28;20573;-71
2022/02/21 12:54:56;;;;;;;5.38;1.10;;;5.10;99.90;;;;;;5065146;28;20508;-70
2022/02/21 12:57:31;;;;;;;5.90;1.38;;;5.10;99.90;;;;;;5065919;28;20049;-70
2022/02/21 13:00:05;;;;;;;8.60;2.60;;;4.90;99.90;;;;;;5050322;28;20036;-70
2022/02/21 13:02:38;;;;;;;6.35;1.70;;;4.80;99.90;;;;;;5048696;28;20043;-71
2022/02/21 13:05:14;;;;;;;6.50;1.40;;;4.70;99.90;;;;;;5064963;28;20592;-71
2022/02/21 13:07:46;;;;;;;10.23;4.00;;;4.70;99.90;;;;;;5048908;28;20124;-70
2022/02/21 13:10:18;;;;;;;7.30;2.25;;;4.80;99.90;;;;;;5050007;28;20037;-71
2022/02/21 13:12:51;;;;;;;9.80;1.98;;;5.00;99.90;;;;;;5047990;28;20041;-70
2022/02/21 13:15:22;;;;;;;5.70;1.30;;;5.00;99.90;;;;;;5048877;28;20414;-70
2022/02/21 13:17:56;;;;;;;6.22;1.83;;;5.10;99.90;;;;;;5048219;28;20052;-71
2022/02/21 13:20:23;;;;;;;6.38;1.80;;;5.30;99.90;;;;;;5049746;28;20663;-70
2022/02/21 13:22:56;;;;;;;8.07;2.38;;;5.50;99.90;;;;;;5049440;28;20040;-71